Time;durP1;ratioP1;P1;durP2;ratioP2;P2;SDS_P1;SDS_P2;PMS_P1;PMS_P2;Temp;Humidity;BMP_temperature;BMP_pressure;BME280_temperature;BME280_humidity;BME280_pressure;Samples;Min_cycle;Max_cycle;Signal;HPM_P1;HPM_P2
2021/08/23 00:00:26;;;;;;;6.40;5.90;;;16.80;99.90;;;;;;5027044;28;20689;-52
2021/08/23 00:02:51;;;;;;;5.70;5.20;;;16.80;99.90;;;;;;5028963;28;20191;-54
2021/08/23 00:05:17;;;;;;;6.87;6.27;;;16.80;99.90;;;;;;5029382;28;20211;-55
2021/08/23 00:07:43;;;;;;;6.10;5.60;;;16.80;99.90;;;;;;5027430;28;20199;-51
2021/08/23 00:10:09;;;;;;;5.87;5.37;;;16.80;99.90;;;;;;5029522;28;20705;-52
2021/08/23 00:12:35;;;;;;;6.20;5.70;;;16.80;99.90;;;;;;5027983;28;20568;-49
2021/08/23 00:15:00;;;;;;;6.80;6.20;;;16.80;99.90;;;;;;5028160;28;20838;-54
2021/08/23 00:17:26;;;;;;;6.37;5.77;;;16.80;99.90;;;;;;5028465;28;20544;-53
2021/08/23 00:19:51;;;;;;;6.23;5.67;;;16.80;99.90;;;;;;5024504;28;20194;-54
2021/08/23 00:22:29;;;;;;;6.70;6.00;;;16.80;99.90;;;;;;5026970;28;20195;-52
2021/08/23 00:24:55;;;;;;;6.50;5.90;;;16.80;99.90;;;;;;5028538;28;20241;-57
2021/08/23 00:27:20;;;;;;;8.10;6.60;;;16.80;99.90;;;;;;5028627;28;20441;-53
2021/08/23 00:29:46;;;;;;;6.30;5.80;;;16.80;99.90;;;;;;5028816;28;20188;-55
2021/08/23 00:32:13;;;;;;;5.90;5.40;;;16.70;99.90;;;;;;5034059;28;20665;-53
2021/08/23 00:34:38;;;;;;;6.50;5.90;;;16.80;99.90;;;;;;5034843;28;20225;-51
2021/08/23 00:37:05;;;;;;;6.47;5.87;;;16.80;99.90;;;;;;5035010;28;20468;-53
2021/08/23 00:39:31;;;;;;;6.50;6.00;;;16.80;99.90;;;;;;5035855;28;20187;-51
2021/08/23 00:41:58;;;;;;;6.40;5.77;;;16.80;99.90;;;;;;5033486;28;20431;-53
2021/08/23 00:44:23;;;;;;;6.40;5.90;;;16.80;99.90;;;;;;5034894;28;20548;-50
2021/08/23 00:46:49;;;;;;;6.60;6.00;;;16.80;99.90;;;;;;5030889;28;20520;-55
2021/08/23 00:49:14;;;;;;;6.07;5.57;;;16.80;99.90;;;;;;5035409;28;20179;-50
2021/08/23 00:51:40;;;;;;;6.77;6.17;;;16.80;99.90;;;;;;5033318;28;20179;-55
2021/08/23 00:54:06;;;;;;;6.53;5.83;;;16.80;99.90;;;;;;5033010;28;20265;-55
2021/08/23 00:56:32;;;;;;;5.80;5.30;;;16.90;99.90;;;;;;5034831;28;20266;-55
2021/08/23 00:58:57;;;;;;;6.10;5.50;;;16.80;99.90;;;;;;5033175;28;20528;-52
2021/08/23 01:01:29;;;;;;;5.83;5.33;;;16.90;99.90;;;;;;5030081;28;20713;-52
2021/08/23 01:04:02;;;;;;;5.90;5.43;;;16.90;99.90;;;;;;5033553;28;20215;-56
2021/08/23 01:06:29;;;;;;;8.80;6.20;;;16.80;99.90;;;;;;5034844;28;20441;-54
2021/08/23 01:08:59;;;;;;;5.70;5.23;;;16.70;99.90;;;;;;5035424;28;20475;-55
2021/08/23 01:11:29;;;;;;;5.77;5.23;;;16.80;99.90;;;;;;5033995;28;20520;-51
2021/08/23 01:13:54;;;;;;;6.03;5.43;;;16.80;99.90;;;;;;5022001;28;21088;-49
2021/08/23 01:16:20;;;;;;;5.70;5.20;;;16.80;99.90;;;;;;5035567;28;20418;-53
2021/08/23 01:18:46;;;;;;;5.87;5.30;;;16.70;99.90;;;;;;5034077;28;20191;-55
2021/08/23 01:21:17;;;;;;;5.50;5.00;;;16.70;99.90;;;;;;5034323;28;20484;-55
2021/08/23 01:23:46;;;;;;;5.80;5.20;;;16.70;99.90;;;;;;5033818;28;20203;-54
2021/08/23 01:26:15;;;;;;;6.13;5.00;;;16.60;99.90;;;;;;5033126;28;20507;-54
2021/08/23 01:29:13;;;;;;;5.73;5.30;;;16.60;99.90;;;;;;5035078;28;20419;-56
2021/08/23 01:31:44;;;;;;;5.30;4.87;;;16.60;99.90;;;;;;5033891;28;20450;-54
2021/08/23 01:34:11;;;;;;;5.90;5.23;;;16.60;99.90;;;;;;5033783;28;21266;-54
2021/08/23 01:36:37;;;;;;;5.93;5.43;;;16.60;99.90;;;;;;5032674;28;20495;-50
2021/08/23 01:39:03;;;;;;;5.47;4.97;;;16.60;99.90;;;;;;5034532;28;20434;-53
2021/08/23 01:41:29;;;;;;;5.90;5.33;;;16.60;99.90;;;;;;5034549;28;20432;-52
2021/08/23 01:43:54;;;;;;;5.90;5.40;;;16.60;99.90;;;;;;5025056;28;20461;-52
2021/08/23 01:46:20;;;;;;;5.00;4.60;;;16.60;99.90;;;;;;5029822;28;20183;-54
2021/08/23 01:48:46;;;;;;;5.93;5.40;;;16.60;99.90;;;;;;5030643;28;20197;-54
2021/08/23 01:51:12;;;;;;;6.50;5.23;;;16.50;99.90;;;;;;5031886;28;20269;-51
2021/08/23 01:53:38;;;;;;;5.30;4.80;;;16.50;99.90;;;;;;5031370;28;20571;-53
2021/08/23 01:56:04;;;;;;;5.77;5.27;;;16.50;99.90;;;;;;5028562;28;20190;-55
2021/08/23 01:58:29;;;;;;;6.10;5.50;;;16.50;99.90;;;;;;5029659;28;20426;-53
2021/08/23 02:00:55;;;;;;;6.00;5.50;;;16.50;99.90;;;;;;5029767;28;20235;-54
2021/08/23 02:03:20;;;;;;;5.80;5.30;;;16.50;99.90;;;;;;5031491;28;20183;-52
2021/08/23 02:05:46;;;;;;;5.77;5.27;;;16.50;99.90;;;;;;5030409;28;20229;-54
2021/08/23 02:08:11;;;;;;;5.23;4.83;;;16.50;99.90;;;;;;5030851;28;20585;-53
2021/08/23 02:10:38;;;;;;;5.70;5.20;;;16.50;99.90;;;;;;5031332;28;20990;-55
2021/08/23 02:13:04;;;;;;;5.93;5.40;;;16.50;99.90;;;;;;5029986;28;20182;-55
2021/08/23 02:15:29;;;;;;;7.43;6.80;;;16.60;99.90;;;;;;5031707;28;20417;-56
2021/08/23 02:17:55;;;;;;;5.83;5.27;;;16.50;99.90;;;;;;5030865;28;20183;-52
2021/08/23 02:20:20;;;;;;;6.20;5.70;;;16.50;99.90;;;;;;5029190;28;20183;-53
2021/08/23 02:22:47;;;;;;;7.40;6.70;;;16.50;99.90;;;;;;5030112;28;20266;-53
2021/08/23 02:25:13;;;;;;;8.40;6.33;;;16.50;99.90;;;;;;5029361;28;20753;-51
2021/08/23 02:27:38;;;;;;;7.43;6.73;;;16.50;99.90;;;;;;5029122;28;20466;-50
2021/08/23 02:30:04;;;;;;;7.37;6.77;;;16.50;99.90;;;;;;5030303;28;20465;-55
2021/08/23 02:32:30;;;;;;;7.80;7.10;;;16.50;99.90;;;;;;5031025;28;20441;-54
2021/08/23 02:34:55;;;;;;;7.30;6.60;;;16.50;99.90;;;;;;5029502;28;20954;-56
2021/08/23 02:37:21;;;;;;;7.10;6.43;;;16.50;99.90;;;;;;5029714;28;20195;-55
2021/08/23 02:39:47;;;;;;;7.50;6.80;;;16.50;99.90;;;;;;5029844;28;20198;-54
2021/08/23 02:42:12;;;;;;;8.30;7.60;;;16.50;99.90;;;;;;5029616;28;20201;-50
2021/08/23 02:44:38;;;;;;;9.80;8.23;;;16.50;99.90;;;;;;5029650;28;20586;-52
2021/08/23 02:47:03;;;;;;;9.40;8.50;;;16.60;99.90;;;;;;5028880;28;20183;-55
2021/08/23 02:49:29;;;;;;;9.60;8.37;;;16.70;99.90;;;;;;5030391;28;20203;-55
2021/08/23 02:51:55;;;;;;;8.73;7.83;;;16.70;99.90;;;;;;5027648;28;20191;-54
2021/08/23 02:54:21;;;;;;;8.77;7.97;;;16.60;99.90;;;;;;5028997;28;20249;-56
2021/08/23 02:56:48;;;;;;;8.87;8.03;;;16.60;99.90;;;;;;5028654;28;20464;-55
2021/08/23 02:59:13;;;;;;;8.60;7.80;;;16.60;99.90;;;;;;5030864;28;21182;-53
2021/08/23 03:01:39;;;;;;;8.80;8.00;;;16.60;99.90;;;;;;5028737;28;20531;-52
2021/08/23 03:04:04;;;;;;;8.90;8.10;;;16.70;99.90;;;;;;5028884;28;20207;-53
2021/08/23 03:06:30;;;;;;;8.50;7.70;;;16.70;99.90;;;;;;5029295;28;20206;-55
2021/08/23 03:08:55;;;;;;;9.03;8.20;;;16.60;99.90;;;;;;5030158;28;20616;-55
2021/08/23 03:11:22;;;;;;;8.53;7.73;;;16.60;99.90;;;;;;5029925;28;20179;-53
2021/08/23 03:13:47;;;;;;;8.67;7.87;;;16.60;99.90;;;;;;5028366;28;20206;-53
2021/08/23 03:16:13;;;;;;;8.57;7.77;;;16.50;99.90;;;;;;5022267;28;20480;-55
2021/08/23 03:18:39;;;;;;;8.70;7.87;;;16.50;99.90;;;;;;5028199;28;20193;-53
2021/08/23 03:21:06;;;;;;;8.87;8.07;;;16.50;99.90;;;;;;5028252;28;20183;-56
2021/08/23 03:23:32;;;;;;;7.90;7.20;;;16.50;99.90;;;;;;5030005;28;20418;-55
2021/08/23 03:25:59;;;;;;;7.93;7.23;;;16.60;99.90;;;;;;5027804;28;20441;-56
2021/08/23 03:28:25;;;;;;;7.97;7.17;;;16.60;99.90;;;;;;5029145;28;20185;-54
2021/08/23 03:30:50;;;;;;;9.30;8.10;;;16.60;99.90;;;;;;5030078;28;20420;-51
2021/08/23 03:33:16;;;;;;;8.80;7.90;;;16.60;99.90;;;;;;5028431;28;20652;-55
2021/08/23 03:35:42;;;;;;;8.80;8.00;;;16.60;99.90;;;;;;5029415;28;20188;-55
2021/08/23 03:38:07;;;;;;;8.63;7.90;;;16.60;99.90;;;;;;5029370;28;20194;-57
2021/08/23 03:40:33;;;;;;;9.37;8.50;;;16.60;99.90;;;;;;5025959;28;20191;-53
2021/08/23 03:42:59;;;;;;;9.83;8.17;;;16.60;99.90;;;;;;5028151;28;20230;-49
2021/08/23 03:45:25;;;;;;;8.13;7.33;;;16.60;99.90;;;;;;5028469;28;20306;-53
2021/08/23 03:47:50;;;;;;;8.57;7.70;;;16.60;99.90;;;;;;5028627;28;20187;-53
2021/08/23 03:50:16;;;;;;;8.30;7.53;;;16.60;99.90;;;;;;5028304;28;20219;-52
2021/08/23 03:52:41;;;;;;;8.00;7.30;;;16.60;99.90;;;;;;5027950;28;20336;-55
2021/08/23 03:55:08;;;;;;;9.87;8.93;;;16.50;99.90;;;;;;5026700;28;20605;-52
2021/08/23 03:57:35;;;;;;;8.33;7.63;;;16.50;99.90;;;;;;5026109;28;20554;-54
2021/08/23 04:00:03;;;;;;;9.03;8.13;;;16.50;99.90;;;;;;5028095;28;21181;-56
2021/08/23 04:02:29;;;;;;;8.70;7.83;;;16.50;99.90;;;;;;5026466;28;20457;-55
2021/08/23 04:04:54;;;;;;;8.33;7.63;;;16.60;99.90;;;;;;5028403;28;20462;-52
2021/08/23 04:07:20;;;;;;;9.70;8.80;;;16.60;99.90;;;;;;5025078;28;20210;-54
2021/08/23 04:09:45;;;;;;;9.60;8.50;;;16.60;99.90;;;;;;5028381;28;20214;-55
2021/08/23 04:12:11;;;;;;;8.57;7.73;;;16.60;99.90;;;;;;5028084;28;20539;-51
2021/08/23 04:14:36;;;;;;;9.03;8.23;;;16.60;99.90;;;;;;5029046;28;20183;-55
2021/08/23 04:17:02;;;;;;;9.03;8.13;;;16.60;99.90;;;;;;5026235;28;20191;-54
2021/08/23 04:19:29;;;;;;;8.80;7.90;;;16.60;99.90;;;;;;5036305;28;21052;-52
2021/08/23 04:21:54;;;;;;;8.90;7.97;;;16.60;99.90;;;;;;5020732;28;20180;-54
2021/08/23 04:24:20;;;;;;;9.10;8.30;;;16.60;99.90;;;;;;5017054;28;21146;-55
2021/08/23 04:26:45;;;;;;;9.17;8.23;;;16.60;99.90;;;;;;5019425;28;20190;-55
2021/08/23 04:29:11;;;;;;;8.90;8.00;;;16.60;99.90;;;;;;5019800;28;20195;-56
2021/08/23 04:31:37;;;;;;;8.73;7.90;;;16.60;99.90;;;;;;5020121;28;20351;-53
2021/08/23 04:34:02;;;;;;;8.57;7.80;;;16.60;99.90;;;;;;5016593;28;20222;-53
2021/08/23 04:36:28;;;;;;;6.33;5.80;;;16.70;99.90;;;;;;5012156;28;20229;-51
2021/08/23 04:38:53;;;;;;;6.57;5.90;;;16.70;99.90;;;;;;5016912;28;20210;-55
2021/08/23 04:41:19;;;;;;;7.37;6.77;;;16.70;99.90;;;;;;5020463;28;20187;-56
2021/08/23 04:43:45;;;;;;;6.63;6.03;;;16.70;99.90;;;;;;5023354;28;20175;-52
2021/08/23 04:46:10;;;;;;;7.00;6.40;;;16.70;99.90;;;;;;5027805;28;20237;-54
2021/08/23 04:48:36;;;;;;;7.60;6.90;;;16.70;99.90;;;;;;5027488;28;20238;-54
2021/08/23 04:51:03;;;;;;;8.13;7.33;;;16.60;99.90;;;;;;5028153;28;20187;-54
2021/08/23 04:53:29;;;;;;;7.67;6.97;;;16.60;99.90;;;;;;5028237;28;20258;-48
2021/08/23 04:55:56;;;;;;;7.40;6.80;;;16.60;99.90;;;;;;5026969;28;20465;-54
2021/08/23 04:58:22;;;;;;;4.40;4.00;;;16.70;99.90;;;;;;5027681;28;20437;-55
2021/08/23 05:00:48;;;;;;;5.30;4.80;;;16.70;99.90;;;;;;5026330;28;20507;-55
2021/08/23 05:03:14;;;;;;;5.10;4.70;;;16.70;99.90;;;;;;5028455;28;20588;-56
2021/08/23 05:05:41;;;;;;;4.90;4.50;;;16.70;99.90;;;;;;5028549;28;20446;-53
2021/08/23 05:08:07;;;;;;;5.17;4.77;;;16.80;99.90;;;;;;5027068;28;20916;-53
2021/08/23 05:10:33;;;;;;;4.33;4.03;;;16.70;99.90;;;;;;5028155;28;20563;-53
2021/08/23 05:12:58;;;;;;;3.90;3.60;;;16.60;99.90;;;;;;5028850;28;20912;-50
2021/08/23 05:15:24;;;;;;;4.23;3.93;;;16.50;99.90;;;;;;5028928;28;20417;-56
2021/08/23 05:17:51;;;;;;;4.40;4.00;;;16.50;99.90;;;;;;5030939;28;20219;-56
2021/08/23 05:20:17;;;;;;;4.23;3.83;;;16.50;99.90;;;;;;5030969;28;20184;-54
2021/08/23 05:22:42;;;;;;;3.73;3.43;;;16.50;99.90;;;;;;5032358;28;20534;-55
2021/08/23 05:25:08;;;;;;;4.53;4.20;;;16.50;99.90;;;;;;5031398;28;20991;-56
2021/08/23 05:27:34;;;;;;;5.00;4.60;;;16.50;99.90;;;;;;5032181;28;20183;-53
2021/08/23 05:30:04;;;;;;;4.53;4.13;;;16.50;99.90;;;;;;5031744;28;20440;-55
2021/08/23 05:32:30;;;;;;;4.60;4.20;;;16.50;99.90;;;;;;5032408;28;20426;-52
2021/08/23 05:34:56;;;;;;;4.60;4.20;;;16.60;99.90;;;;;;5031209;28;20430;-55
2021/08/23 05:37:22;;;;;;;5.00;4.50;;;16.60;99.90;;;;;;5032279;28;20574;-58
2021/08/23 05:39:48;;;;;;;4.90;4.50;;;16.60;99.90;;;;;;5032220;28;20422;-56
2021/08/23 05:42:14;;;;;;;4.90;4.50;;;16.60;99.90;;;;;;5031825;28;20259;-56
2021/08/23 05:44:40;;;;;;;5.50;5.00;;;16.60;99.90;;;;;;5026995;28;20468;-56
2021/08/23 05:47:06;;;;;;;5.07;4.67;;;16.70;99.90;;;;;;5029353;28;20429;-54
2021/08/23 05:49:32;;;;;;;6.03;5.53;;;16.70;99.90;;;;;;5031205;28;20415;-56
2021/08/23 05:51:58;;;;;;;5.30;4.90;;;16.80;99.90;;;;;;5030936;28;20178;-58
2021/08/23 05:54:23;;;;;;;5.17;4.77;;;16.90;99.90;;;;;;5031527;28;20571;-57
2021/08/23 05:56:49;;;;;;;4.70;4.30;;;16.90;99.90;;;;;;5031402;28;20434;-52
2021/08/23 05:59:14;;;;;;;4.80;4.40;;;16.90;99.90;;;;;;5031493;28;20191;-54
2021/08/23 06:01:40;;;;;;;5.53;4.67;;;16.90;99.90;;;;;;5030659;28;20314;-56
2021/08/23 06:04:05;;;;;;;4.60;4.20;;;17.00;99.90;;;;;;5031143;28;20330;-55
2021/08/23 06:06:33;;;;;;;4.50;4.20;;;17.10;99.90;;;;;;5030997;28;20244;-52
2021/08/23 06:08:58;;;;;;;4.33;4.00;;;17.20;99.90;;;;;;5031131;28;20187;-53
2021/08/23 06:11:24;;;;;;;4.13;3.83;;;17.20;99.90;;;;;;5030987;28;20421;-56
2021/08/23 06:13:49;;;;;;;4.63;4.27;;;17.40;99.90;;;;;;5023050;28;20182;-55
2021/08/23 06:16:15;;;;;;;4.20;3.90;;;17.50;98.60;;;;;;5031176;28;20273;-56
2021/08/23 06:18:40;;;;;;;4.17;3.77;;;17.50;98.70;;;;;;5029473;28;20645;-56
2021/08/23 06:21:09;;;;;;;4.30;4.00;;;17.50;99.90;;;;;;5030334;28;20712;-55
2021/08/23 06:23:34;;;;;;;4.50;4.10;;;17.50;99.90;;;;;;5030736;28;20191;-54
2021/08/23 06:26:00;;;;;;;4.90;4.50;;;17.40;99.90;;;;;;5030640;28;20818;-57
2021/08/23 06:28:25;;;;;;;4.60;4.20;;;17.30;99.90;;;;;;5029844;28;20188;-56
2021/08/23 06:30:51;;;;;;;4.93;4.53;;;17.40;99.90;;;;;;5030376;28;20229;-52
2021/08/23 06:33:16;;;;;;;4.33;4.03;;;17.40;99.90;;;;;;5030652;28;20670;-52
2021/08/23 06:35:42;;;;;;;4.33;4.03;;;17.40;99.90;;;;;;5030208;28;20223;-52
2021/08/23 06:38:08;;;;;;;4.00;3.70;;;17.40;99.90;;;;;;5030979;28;20177;-56
2021/08/23 06:40:33;;;;;;;4.37;4.07;;;17.40;99.90;;;;;;5030427;28;20182;-53
2021/08/23 06:42:59;;;;;;;4.60;4.20;;;17.50;99.90;;;;;;5030354;28;20440;-55
2021/08/23 06:45:25;;;;;;;5.07;4.60;;;17.50;99.90;;;;;;5030195;28;20200;-50
2021/08/23 06:47:50;;;;;;;4.23;3.93;;;17.40;99.90;;;;;;5030044;28;20979;-54
2021/08/23 06:50:16;;;;;;;4.50;4.10;;;17.30;99.90;;;;;;5030311;28;20660;-57
2021/08/23 06:52:44;;;;;;;5.53;4.97;;;17.20;99.90;;;;;;5030107;28;20183;-55
2021/08/23 06:55:09;;;;;;;5.67;5.17;;;17.20;99.90;;;;;;5030138;28;20204;-54
2021/08/23 06:57:35;;;;;;;5.73;5.23;;;17.30;99.90;;;;;;5030226;28;20453;-53
2021/08/23 07:00:00;;;;;;;4.83;4.43;;;17.30;99.90;;;;;;5029983;28;20297;-54
2021/08/23 07:02:26;;;;;;;4.63;4.23;;;17.30;99.90;;;;;;5030417;28;20184;-54
2021/08/23 07:04:51;;;;;;;3.70;3.40;;;17.40;99.90;;;;;;5030205;28;20217;-51
2021/08/23 07:07:17;;;;;;;3.30;3.10;;;17.40;99.90;;;;;;5029945;28;20644;-60
2021/08/23 07:09:43;;;;;;;3.47;3.20;;;17.30;99.90;;;;;;5029583;28;20184;-53
2021/08/23 07:12:09;;;;;;;3.53;3.23;;;17.30;99.90;;;;;;5030025;28;20639;-55
2021/08/23 07:14:36;;;;;;;3.70;3.40;;;17.30;99.90;;;;;;5029819;28;20415;-59
2021/08/23 07:17:05;;;;;;;2.80;2.60;;;17.20;99.90;;;;;;5029581;28;20439;-59
2021/08/23 07:19:31;;;;;;;2.27;2.07;;;17.30;99.90;;;;;;5029551;28;20473;-56
2021/08/23 07:21:57;;;;;;;2.33;2.10;;;17.30;99.90;;;;;;5029511;28;20445;-55
2021/08/23 07:24:23;;;;;;;2.00;1.90;;;17.40;99.90;;;;;;5029569;28;20286;-54
2021/08/23 07:26:48;;;;;;;2.03;1.93;;;17.50;99.90;;;;;;5029355;28;20238;-55
2021/08/23 07:29:14;;;;;;;2.10;2.00;;;17.50;99.90;;;;;;5034853;28;20310;-56
2021/08/23 07:31:41;;;;;;;2.50;2.30;;;17.60;99.90;;;;;;5035188;28;20176;-55
2021/08/23 07:34:08;;;;;;;2.40;2.20;;;17.70;99.90;;;;;;5029656;28;20184;-55
2021/08/23 07:36:34;;;;;;;2.17;2.03;;;17.80;99.90;;;;;;5029959;28;20423;-55
2021/08/23 07:38:59;;;;;;;2.60;2.40;;;17.90;99.90;;;;;;5030238;28;20424;-50
2021/08/23 07:41:25;;;;;;;2.10;2.00;;;18.00;99.90;;;;;;5029852;28;20304;-54
2021/08/23 07:43:50;;;;;;;2.10;1.90;;;18.00;99.90;;;;;;5028841;28;20660;-54
2021/08/23 07:46:16;;;;;;;2.63;2.43;;;18.10;99.90;;;;;;5029622;28;20178;-56
2021/08/23 07:48:44;;;;;;;2.13;2.03;;;18.10;99.90;;;;;;5027828;28;20272;-53
2021/08/23 07:51:10;;;;;;;2.63;2.43;;;18.20;99.90;;;;;;5029687;28;20174;-56
2021/08/23 07:53:36;;;;;;;2.60;2.40;;;18.20;99.90;;;;;;5028913;28;20413;-55
2021/08/23 07:56:01;;;;;;;2.60;2.40;;;18.00;99.90;;;;;;5029314;28;20436;-56
2021/08/23 07:58:27;;;;;;;2.50;2.30;;;17.90;99.90;;;;;;5029259;28;20265;-56
2021/08/23 08:00:52;;;;;;;2.17;2.07;;;18.00;99.90;;;;;;5028781;28;20261;-55
2021/08/23 08:03:18;;;;;;;2.50;2.30;;;18.10;99.90;;;;;;5029368;28;20592;-54
2021/08/23 08:05:44;;;;;;;2.47;2.27;;;18.20;99.90;;;;;;5029247;28;20931;-55
2021/08/23 08:08:09;;;;;;;2.97;2.70;;;18.40;99.90;;;;;;5029728;28;20194;-51
2021/08/23 08:10:38;;;;;;;2.70;2.50;;;18.60;99.90;;;;;;5028482;28;20202;-57
2021/08/23 08:13:06;;;;;;;3.70;3.40;;;18.70;99.90;;;;;;5029553;28;20175;-56
2021/08/23 08:15:31;;;;;;;3.43;2.90;;;18.80;99.90;;;;;;5028388;28;20441;-55
2021/08/23 08:17:57;;;;;;;3.17;2.97;;;19.00;99.90;;;;;;5029269;28;20453;-54
2021/08/23 08:20:23;;;;;;;3.43;3.13;;;19.20;99.90;;;;;;5028894;28;20189;-50
2021/08/23 08:22:49;;;;;;;3.37;3.07;;;19.30;99.90;;;;;;5028346;28;20190;-54
2021/08/23 08:25:14;;;;;;;3.60;3.30;;;19.50;99.30;;;;;;5029374;28;20201;-53
2021/08/23 08:27:40;;;;;;;3.03;2.80;;;19.60;91.50;;;;;;5027072;28;20187;-57
2021/08/23 08:30:07;;;;;;;3.00;2.80;;;19.60;43.20;;;;;;5028873;28;20220;-58
2021/08/23 08:32:33;;;;;;;3.43;3.13;;;19.60;38.80;;;;;;5029354;28;20215;-56
2021/08/23 08:34:59;;;;;;;2.93;2.73;;;19.80;42.00;;;;;;5029171;28;20452;-56
2021/08/23 08:37:25;;;;;;;2.97;2.77;;;20.10;51.60;;;;;;5028780;28;20974;-53
2021/08/23 08:39:51;;;;;;;2.70;2.50;;;20.30;8.00;;;;;;5028101;28;20194;-56
2021/08/23 08:42:18;;;;;;;2.40;2.20;;;20.40;10.90;;;;;;5028983;28;20436;-57
2021/08/23 08:44:44;;;;;;;2.87;2.67;;;20.60;15.00;;;;;;5028270;28;20519;-55
2021/08/23 08:47:15;;;;;;;2.87;2.67;;;21.00;19.70;;;;;;5028824;28;20924;-56
2021/08/23 08:49:41;;;;;;;3.83;3.07;;;21.40;1.00;;;;;;5028255;28;20434;-56
2021/08/23 08:52:08;;;;;;;2.33;2.23;;;21.50;1.00;;;;;;5029976;28;20448;-54
2021/08/23 08:54:34;;;;;;;2.50;2.40;;;21.70;1.00;;;;;;5032848;28;20268;-57
2021/08/23 08:57:03;;;;;;;3.20;2.70;;;22.00;1.00;;;;;;5032850;28;20514;-53
2021/08/23 08:59:29;;;;;;;3.47;3.27;;;22.00;1.00;;;;;;5031698;28;20191;-54
2021/08/23 09:01:56;;;;;;;2.90;2.70;;;21.80;1.00;;;;;;5032812;28;20504;-55
2021/08/23 09:04:30;;;;;;;3.07;2.87;;;21.80;1.00;;;;;;5033209;28;20461;-55
2021/08/23 09:06:58;;;;;;;2.93;2.83;;;22.10;1.00;;;;;;5031726;28;21397;-57
2021/08/23 09:09:25;;;;;;;2.80;2.60;;;22.30;1.00;;;;;;5033122;28;20421;-57
2021/08/23 09:11:59;;;;;;;3.13;2.93;;;22.50;1.00;;;;;;5031887;28;20531;-57
2021/08/23 09:14:26;;;;;;;2.97;2.83;;;22.40;1.00;;;;;;5032007;28;20420;-52
2021/08/23 09:16:52;;;;;;;3.03;2.83;;;22.30;1.00;;;;;;5032601;28;20449;-56
2021/08/23 09:19:26;;;;;;;3.00;2.80;;;22.60;1.00;;;;;;5032206;28;20428;-57
2021/08/23 09:22:16;;;;;;;2.60;2.50;;;22.80;1.00;;;;;;5032584;28;20416;-54
2021/08/23 09:24:42;;;;;;;3.23;3.03;;;22.60;1.00;;;;;;5031459;28;20523;-55
2021/08/23 09:27:14;;;;;;;3.50;3.30;;;22.60;1.00;;;;;;5032481;28;20411;-57
2021/08/23 09:30:01;;;;;;;3.23;3.07;;;22.50;1.00;;;;;;5032503;28;20423;-51
2021/08/23 09:32:29;;;;;;;3.20;3.00;;;22.20;1.00;;;;;;5031407;28;20463;-57
2021/08/23 09:34:55;;;;;;;3.03;2.80;;;22.20;1.00;;;;;;5032265;28;20440;-55
2021/08/23 09:37:32;;;;;;;2.87;2.67;;;22.10;1.00;;;;;;5031184;28;20440;-54
2021/08/23 09:40:11;;;;;;;3.07;2.87;;;22.10;1.00;;;;;;5032187;28;20426;-52
2021/08/23 09:42:38;;;;;;;3.00;2.80;;;21.90;1.00;;;;;;5031431;28;21347;-56
2021/08/23 09:45:15;;;;;;;3.23;3.03;;;22.00;1.00;;;;;;5031999;28;20506;-56
2021/08/23 09:47:41;;;;;;;2.47;2.37;;;22.10;1.00;;;;;;5031300;28;20510;-50
2021/08/23 09:50:15;;;;;;;2.67;2.57;;;21.90;1.00;;;;;;5032039;28;21206;-54
2021/08/23 09:52:40;;;;;;;2.30;2.20;;;21.80;1.00;;;;;;5028609;28;20354;-57
2021/08/23 09:55:09;;;;;;;2.87;2.67;;;21.80;1.00;;;;;;5028038;28;20538;-55
2021/08/23 09:57:37;;;;;;;2.60;2.50;;;21.90;1.00;;;;;;5031471;28;20195;-52
2021/08/23 10:00:07;;;;;;;2.93;2.70;;;22.00;1.00;;;;;;5029988;28;20569;-54
2021/08/23 10:02:34;;;;;;;3.37;3.07;;;22.10;1.00;;;;;;5031316;28;20437;-54
2021/08/23 10:05:00;;;;;;;3.13;2.93;;;22.10;1.00;;;;;;5029882;28;20831;-56
2021/08/23 10:07:28;;;;;;;3.20;3.00;;;22.40;1.00;;;;;;5031848;28;20908;-51
2021/08/23 10:09:57;;;;;;;3.60;3.40;;;22.70;1.00;;;;;;5030756;28;20886;-56
2021/08/23 10:12:23;;;;;;;3.67;3.47;;;22.90;1.00;;;;;;5031062;28;20429;-59
2021/08/23 10:14:49;;;;;;;4.10;3.90;;;23.20;1.00;;;;;;5030049;28;20197;-57
2021/08/23 10:17:15;;;;;;;3.37;3.17;;;23.10;1.00;;;;;;5031629;28;20482;-53
2021/08/23 10:19:42;;;;;;;3.30;3.10;;;23.00;1.00;;;;;;5030460;28;20433;-54
2021/08/23 10:22:11;;;;;;;3.30;3.10;;;23.00;1.00;;;;;;5031574;28;20178;-56
2021/08/23 10:24:38;;;;;;;3.77;3.47;;;22.90;1.00;;;;;;5031443;28;20498;-56
2021/08/23 10:27:04;;;;;;;3.80;3.60;;;23.00;99.90;;;;;;5033663;28;20434;-54
2021/08/23 10:29:40;;;;;;;5.03;4.60;;;23.20;99.90;;;;;;5032258;28;20790;-53
2021/08/23 10:32:10;;;;;;;4.57;4.27;;;23.20;99.90;;;;;;5030662;28;20265;-55
2021/08/23 10:34:38;;;;;;;4.50;4.20;;;23.20;99.90;;;;;;5030851;28;20910;-52
2021/08/23 10:37:17;;;;;;;4.77;4.47;;;23.10;99.90;;;;;;5031710;28;20804;-49
2021/08/23 10:39:42;;;;;;;5.07;4.77;;;23.00;99.90;;;;;;5031304;28;20941;-53
2021/08/23 10:42:16;;;;;;;4.32;4.03;;;23.00;99.90;;;;;;5031057;28;20472;-56
2021/08/23 10:44:42;;;;;;;4.03;3.83;;;23.10;99.90;;;;;;5030375;28;20198;-55
2021/08/23 10:47:14;;;;;;;4.77;4.40;;;23.10;99.90;;;;;;5030474;28;20429;-55
2021/08/23 10:49:44;;;;;;;5.03;4.73;;;23.10;99.90;;;;;;5030161;28;20186;-55
2021/08/23 10:52:11;;;;;;;4.20;4.00;;;22.80;99.90;;;;;;5030623;28;20434;-54
2021/08/23 10:54:41;;;;;;;4.10;3.90;;;22.70;99.90;;;;;;5029975;28;20514;-51
2021/08/23 10:57:08;;;;;;;4.27;3.97;;;22.60;99.90;;;;;;5029365;28;20433;-56
2021/08/23 10:59:50;;;;;;;4.60;4.20;;;22.60;99.90;;;;;;5029632;28;20468;-56
2021/08/23 11:02:32;;;;;;;4.27;3.97;;;22.70;99.90;;;;;;5017958;28;20439;-56
2021/08/23 11:05:07;;;;;;;4.37;4.07;;;22.80;99.90;;;;;;5029140;28;20475;-55
2021/08/23 11:07:35;;;;;;;4.27;4.07;;;22.90;99.90;;;;;;5029160;28;20523;-53
2021/08/23 11:10:17;;;;;;;4.60;4.30;;;22.90;99.90;;;;;;5017016;28;20448;-52
2021/08/23 11:12:48;;;;;;;4.20;4.00;;;22.80;99.90;;;;;;5029411;28;20470;-55
2021/08/23 11:15:30;;;;;;;4.00;3.80;;;22.80;99.90;;;;;;5029917;28;20422;-53
2021/08/23 11:18:14;;;;;;;4.10;3.90;;;23.00;99.90;;;;;;5029420;28;20436;-54
2021/08/23 11:20:52;;;;;;;3.90;3.70;;;22.90;99.90;;;;;;5029505;28;20479;-54
2021/08/23 11:23:27;;;;;;;3.60;3.40;;;22.90;99.90;;;;;;5029500;28;20439;-57
2021/08/23 11:25:55;;;;;;;3.80;3.60;;;22.60;99.90;;;;;;5028813;28;20470;-57
2021/08/23 11:28:25;;;;;;;3.43;3.23;;;22.60;99.90;;;;;;5027811;28;20841;-56
2021/08/23 11:30:54;;;;;;;3.30;3.10;;;22.60;99.90;;;;;;5028279;28;20448;-54
2021/08/23 11:33:26;;;;;;;3.40;3.20;;;22.40;99.90;;;;;;5029601;28;20432;-54
2021/08/23 11:35:51;;;;;;;3.00;2.80;;;22.20;99.90;;;;;;5029372;28;20431;-57
2021/08/23 11:38:17;;;;;;;3.33;3.10;;;22.00;99.90;;;;;;5029714;28;20441;-52
2021/08/23 11:40:46;;;;;;;2.70;2.60;;;21.60;99.90;;;;;;5029781;28;20194;-56
2021/08/23 11:43:11;;;;;;;2.27;2.17;;;21.20;99.90;;;;;;5028956;28;20540;-55
2021/08/23 11:45:43;;;;;;;1.77;1.67;;;20.90;99.90;;;;;;5029823;28;20457;-57
2021/08/23 11:48:10;;;;;;;1.90;1.80;;;20.40;99.90;;;;;;5029996;28;20237;-56
2021/08/23 11:50:36;;;;;;;1.90;1.80;;;19.90;99.90;;;;;;5030893;28;20434;-55
2021/08/23 11:53:07;;;;;;;2.00;1.90;;;19.70;99.90;;;;;;5031124;28;20425;-57
2021/08/23 11:55:41;;;;;;;2.17;2.07;;;19.50;99.90;;;;;;5027849;28;20213;-52
2021/08/23 11:58:07;;;;;;;2.47;2.27;;;19.40;99.90;;;;;;5018698;28;20405;-54
2021/08/23 12:00:34;;;;;;;2.10;2.00;;;19.20;99.90;;;;;;5030344;28;20486;-53
2021/08/23 12:03:02;;;;;;;2.10;2.00;;;19.20;99.90;;;;;;5031513;28;20417;-56
2021/08/23 12:05:50;;;;;;;2.80;2.60;;;19.20;99.90;;;;;;5030733;28;20479;-57
2021/08/23 12:08:26;;;;;;;2.50;2.40;;;19.30;99.90;;;;;;5030570;28;20463;-55
2021/08/23 12:10:59;;;;;;;2.50;2.40;;;19.30;99.90;;;;;;5030945;28;20417;-53
2021/08/23 12:13:40;;;;;;;2.63;2.47;;;19.30;99.90;;;;;;5030628;28;20449;-53
2021/08/23 12:16:10;;;;;;;2.23;2.13;;;19.30;99.90;;;;;;5031277;28;20834;-55
2021/08/23 12:18:47;;;;;;;2.30;2.20;;;19.40;99.90;;;;;;5030301;28;20446;-51
2021/08/23 12:21:16;;;;;;;3.10;2.90;;;19.10;99.90;;;;;;5030867;28;20533;-56
2021/08/23 12:24:14;;;;;;;2.70;2.50;;;18.90;99.90;;;;;;5028444;28;20434;-52
2021/08/23 12:26:42;;;;;;;2.97;2.77;;;18.60;99.90;;;;;;5028416;28;20454;-54
2021/08/23 12:29:11;;;;;;;2.70;2.50;;;18.50;99.90;;;;;;5029434;28;20452;-52
2021/08/23 12:31:39;;;;;;;2.93;2.73;;;18.50;99.90;;;;;;5029919;28;20524;-55
2021/08/23 12:34:17;;;;;;;3.03;2.83;;;18.40;99.90;;;;;;5028915;28;20444;-52
2021/08/23 12:36:43;;;;;;;3.30;3.10;;;18.40;99.90;;;;;;5030073;28;20481;-50
2021/08/23 12:39:10;;;;;;;3.90;3.60;;;18.30;99.90;;;;;;5030167;28;20435;-53
2021/08/23 12:41:39;;;;;;;4.40;4.10;;;18.10;99.90;;;;;;5029172;28;20800;-53
2021/08/23 12:44:05;;;;;;;4.60;4.20;;;18.00;99.90;;;;;;5030471;28;20457;-52
2021/08/23 12:46:30;;;;;;;5.20;4.80;;;18.00;99.90;;;;;;5029559;28;20530;-55
2021/08/23 12:48:56;;;;;;;4.67;4.27;;;17.90;99.90;;;;;;5029220;28;20184;-56